Pays
Station

 

Conditions  météo  pour  Joensuu  -  Finlande    Finlande

  
19 °C
    
 
 

METAR pour Joensuu :

EFJO 251350Z AUTO 02006KT 300V070 CAVOK 19/M02 Q1023

 

Voici le bulletin pour Joensuu - Finlande.
 
Le bulletin a été fait il y a 11 minutes, à 13:50 UTC .
Le vent soufflait à la vitesse de 3.1 mètres par seconde de Nord/Nord-est (020°), variant entre Ouest/Nord-ouest (300°) et Est/Nord-est (070°).
 
La température était de 19 °C, avec un point de rosée à -2 °C.
La pression atmosphérique était de 1023 hPa.
L'humidité relative était de 24.0%.
 
Il y avait pas de nuages en-dessous de 1500 mètres et pas de cumulonimbus.
 
La visibilité globale était de supérieure à 10 kilomètres.
 

 
 
 

Pays :   A   B   C   D   E   F   G   H   I   J   K   L   M   N   O   P   Q   R   S   T   U   V   W   Y   Z

 

Partenaires :  Info Météo avec Met'info
Météo Marine avec MeteoMarine.net
Infos Site  |  Infos Légales  |  Crédits  |  Confidentialité
Contactez-nous  |  Ajouter aux favoris
© 2013-2020 METAR - Tous droits réservés